DHX706P OMDW-OMDB
Flight info
| Callsign | DHX706P |
|---|---|
| Flight time | N/A |
| Altitude | 10000 |
| Route | LORID LORI4D |
| Aircraft | B763/H-SDE3FGHIM3RWXYZ/LB1 |
Departure
| Time | 2026-04-20 23:44 |
|---|---|
| Airport | Al Maktoum International Airport (OMDW) |
Arrival
| Time | N/A |
|---|---|
| Airport | Dubai International Airport (OMDB) |
| Time | Latitude | Longitude | Altitude | Speed | Heading |
|---|---|---|---|---|---|
| 2026-04-20 23:28 | 24.88885 | 55.15265 | 167 ft | 0 kts | 302° |
| 2026-04-20 23:36 | 24.88877 | 55.15279 | 165 ft | 5 kts | 302° |
| 2026-04-20 23:36 | 24.88859 | 55.15310 | 165 ft | 5 kts | 302° |
| 2026-04-20 23:36 | 24.88837 | 55.15338 | 165 ft | 5 kts | 342° |
| 2026-04-20 23:36 | 24.88802 | 55.15339 | 165 ft | 7 kts | 22° |
| 2026-04-20 23:37 | 24.88791 | 55.15333 | 165 ft | 0 kts | 32° |
| 2026-04-20 23:38 | 24.88850 | 55.15374 | 165 ft | 26 kts | 32° |
| 2026-04-20 23:39 | 24.89053 | 55.15509 | 163 ft | 35 kts | 30° |
| 2026-04-20 23:39 | 24.89149 | 55.15575 | 162 ft | 34 kts | 32° |
| 2026-04-20 23:39 | 24.89189 | 55.15603 | 162 ft | 33 kts | 32° |
| 2026-04-20 23:39 | 24.89376 | 55.15734 | 161 ft | 30 kts | 32° |
| 2026-04-20 23:40 | 24.89547 | 55.15851 | 161 ft | 14 kts | 56° |
| 2026-04-20 23:40 | 24.89498 | 55.15992 | 161 ft | 29 kts | 121° |
| 2026-04-20 23:40 | 24.89394 | 55.16182 | 161 ft | 29 kts | 121° |
| 2026-04-20 23:40 | 24.89288 | 55.16372 | 161 ft | 29 kts | 121° |
| 2026-04-20 23:41 | 24.89183 | 55.16563 | 158 ft | 29 kts | 121° |
| 2026-04-20 23:41 | 24.89078 | 55.16752 | 160 ft | 30 kts | 121° |
| 2026-04-20 23:41 | 24.88931 | 55.17013 | 161 ft | 43 kts | 122° |
| 2026-04-20 23:41 | 24.88780 | 55.17285 | 161 ft | 39 kts | 120° |
| 2026-04-20 23:42 | 24.88713 | 55.17471 | 160 ft | 13 kts | 71° |
| 2026-04-20 23:42 | 24.88735 | 55.17499 | 160 ft | 0 kts | 38° |
| 2026-04-20 23:42 | 24.88745 | 55.17508 | 160 ft | 11 kts | 37° |
| 2026-04-20 23:42 | 24.88853 | 55.17547 | 161 ft | 13 kts | 341° |
| 2026-04-20 23:43 | 24.88909 | 55.17468 | 163 ft | 19 kts | 300° |
| 2026-04-20 23:43 | 24.89048 | 55.17211 | 161 ft | 68 kts | 301° |
| 2026-04-20 23:43 | 24.89425 | 55.16537 | 160 ft | 136 kts | 301° |
| 2026-04-20 23:43 | 24.90022 | 55.15461 | 175 ft | 190 kts | 301° |
| 2026-04-20 23:44 | 24.90742 | 55.14171 | 663 ft | 204 kts | 302° |
| 2026-04-20 23:44 | 24.91517 | 55.12792 | 1195 ft | 216 kts | 302° |
| 2026-04-20 23:44 | 24.92306 | 55.11371 | 1804 ft | 222 kts | 302° |
| 2026-04-20 23:44 | 24.93143 | 55.09857 | 2054 ft | 239 kts | 302° |
| 2026-04-20 23:45 | 24.94022 | 55.08269 | 2419 ft | 247 kts | 302° |
| 2026-04-20 23:45 | 24.94931 | 55.06624 | 2824 ft | 255 kts | 302° |
| 2026-04-20 23:45 | 24.95867 | 55.04931 | 3250 ft | 263 kts | 302° |
| 2026-04-20 23:45 | 24.96831 | 55.03185 | 3789 ft | 268 kts | 302° |
| 2026-04-20 23:46 | 24.97792 | 55.01444 | 4397 ft | 271 kts | 302° |
| 2026-04-20 23:46 | 24.98773 | 54.99663 | 5013 ft | 273 kts | 302° |
| 2026-04-20 23:46 | 24.99761 | 54.97871 | 5653 ft | 274 kts | 302° |
| 2026-04-20 23:46 | 25.00749 | 54.96078 | 6295 ft | 275 kts | 302° |
| 2026-04-20 23:47 | 25.01725 | 54.94304 | 6905 ft | 275 kts | 302° |
| 2026-04-20 23:47 | 25.02722 | 54.92494 | 7531 ft | 274 kts | 302° |
| 2026-04-20 23:47 | 25.03704 | 54.90708 | 8112 ft | 275 kts | 302° |
| 2026-04-20 23:47 | 25.04706 | 54.88887 | 8700 ft | 276 kts | 302° |
| 2026-04-20 23:48 | 25.05704 | 54.87073 | 9288 ft | 276 kts | 301° |
| 2026-04-20 23:48 | 25.06700 | 54.85262 | 9829 ft | 277 kts | 301° |
| 2026-04-20 23:48 | 25.07709 | 54.83428 | 9999 ft | 282 kts | 302° |
| 2026-04-20 23:48 | 25.09032 | 54.81823 | 10000 ft | 283 kts | 325° |
| 2026-04-20 23:49 | 25.10854 | 54.81004 | 10002 ft | 287 kts | 349° |
| 2026-04-20 23:49 | 25.12830 | 54.81043 | 10001 ft | 291 kts | 9° |
| 2026-04-20 23:49 | 25.14723 | 54.81910 | 9994 ft | 293 kts | 31° |
| 2026-04-20 23:49 | 25.16392 | 54.83304 | 10013 ft | 313 kts | 37° |
| 2026-04-20 23:50 | 25.18110 | 54.84929 | 10015 ft | 337 kts | 38° |
| 2026-04-20 23:50 | 25.19935 | 54.86689 | 10016 ft | 360 kts | 38° |
| 2026-04-20 23:50 | 25.21888 | 54.88556 | 10013 ft | 379 kts | 38° |
| 2026-04-20 23:50 | 25.23906 | 54.90460 | 10001 ft | 382 kts | 38° |
| 2026-04-20 23:51 | 25.25920 | 54.92343 | 9838 ft | 383 kts | 38° |
| 2026-04-20 23:51 | 25.27928 | 54.94251 | 9602 ft | 377 kts | 41° |
| 2026-04-20 23:51 | 25.29522 | 54.96578 | 9319 ft | 382 kts | 62° |
| 2026-04-20 23:51 | 25.30574 | 54.99265 | 9086 ft | 384 kts | 65° |
| 2026-04-20 23:52 | 25.31615 | 55.01865 | 8860 ft | 386 kts | 63° |